createdAt,value
2022-08-25T00:00:03.093Z,20.99
2022-08-25T00:01:03.383Z,20.96
2022-08-25T00:02:03.696Z,20.99
2022-08-25T00:03:04.019Z,20.99
2022-08-25T00:04:04.157Z,20.99
2022-08-25T00:05:04.492Z,20.99
2022-08-25T00:06:04.734Z,20.96
2022-08-25T00:07:05.052Z,20.95
2022-08-25T00:08:05.592Z,20.93
2022-08-25T00:09:05.574Z,20.93
2022-08-25T00:10:05.862Z,20.93
2022-08-25T00:11:06.136Z,20.89
2022-08-25T00:12:06.436Z,20.87
2022-08-25T00:13:06.718Z,20.83
2022-08-25T00:14:07.013Z,20.83
2022-08-25T00:15:07.295Z,20.83
2022-08-25T00:16:07.655Z,20.81
2022-08-25T00:17:07.911Z,20.79
2022-08-25T00:18:19.755Z,20.77
2022-08-25T00:19:09.496Z,20.74
2022-08-25T00:20:08.833Z,20.77
2022-08-25T00:21:09.107Z,20.76
2022-08-25T00:22:09.445Z,20.76
2022-08-25T00:23:09.743Z,20.76
2022-08-25T00:24:10.036Z,20.80
2022-08-25T00:25:10.316Z,20.83
2022-08-25T00:26:10.603Z,20.89
2022-08-25T00:27:10.902Z,20.93
2022-08-25T00:28:11.335Z,20.95
2022-08-25T00:29:11.504Z,20.95
2022-08-25T00:30:11.822Z,20.95
2022-08-25T00:31:12.198Z,20.95
2022-08-25T00:32:12.400Z,20.93
2022-08-25T00:33:12.729Z,20.95
2022-08-25T00:34:13.007Z,20.95
2022-08-25T00:35:13.286Z,20.90
2022-08-25T00:36:17.333Z,20.87
2022-08-25T00:37:13.950Z,20.81
2022-08-25T00:38:14.279Z,20.80
2022-08-25T00:39:14.567Z,20.71
2022-08-25T00:40:14.903Z,20.68
2022-08-25T00:41:15.147Z,20.64
2022-08-25T00:42:16.006Z,20.61
2022-08-25T00:43:15.785Z,20.61
2022-08-25T00:44:16.074Z,20.62
2022-08-25T00:45:16.373Z,20.64
2022-08-25T00:46:16.714Z,20.64
2022-08-25T00:47:16.924Z,20.61
2022-08-25T00:48:17.197Z,20.58
2022-08-25T00:49:24.720Z,20.58
2022-08-25T00:50:18.778Z,20.54
2022-08-25T00:51:18.007Z,20.54
2022-08-25T00:52:18.316Z,20.54
2022-08-25T02:56:20.723Z,19.11
2022-08-25T02:57:21.034Z,19.13
2022-08-25T02:58:21.358Z,19.14
2022-08-25T02:59:21.652Z,19.14
2022-08-25T03:00:21.954Z,19.15
2022-08-25T03:01:22.291Z,19.17
2022-08-25T03:02:23.550Z,19.14
2022-08-25T03:03:22.781Z,19.11
2022-08-25T03:04:23.088Z,19.08
2022-08-25T03:05:23.392Z,19.06
2022-08-25T03:06:23.698Z,19.08
2022-08-25T03:07:24.785Z,19.13
2022-08-25T03:08:24.329Z,19.15
2022-08-25T03:09:24.618Z,19.15
2022-08-25T03:10:24.906Z,19.13
2022-08-25T03:11:25.184Z,19.11
2022-08-25T03:12:25.513Z,19.11
2022-08-25T03:13:25.806Z,19.17
2022-08-25T03:14:26.100Z,19.18
2022-08-25T03:15:26.373Z,19.20
2022-08-25T03:16:27.851Z,19.20
2022-08-25T03:17:26.843Z,19.18
2022-08-25T03:18:27.102Z,19.20
2022-08-25T03:19:27.356Z,19.15
2022-08-25T03:20:27.644Z,19.13
2022-08-25T03:21:27.978Z,19.13
2022-08-25T03:22:28.276Z,19.11
2022-08-25T03:23:28.565Z,19.05
2022-08-25T03:24:28.863Z,19.02
2022-08-25T03:25:29.138Z,18.94
2022-08-25T03:26:29.437Z,18.95
2022-08-25T03:27:29.724Z,18.95
2022-08-25T03:28:30.301Z,19.01
2022-08-25T03:29:30.256Z,19.05
2022-08-25T03:30:30.529Z,19.10
2022-08-25T03:31:30.881Z,19.14
2022-08-25T03:32:31.057Z,19.17
2022-08-25T03:33:31.351Z,19.21
2022-08-25T03:34:31.667Z,19.24
2022-08-25T03:35:32.016Z,19.20
2022-08-25T03:36:32.219Z,19.17
2022-08-25T03:37:32.493Z,19.13
2022-08-25T03:38:32.817Z,19.10
2022-08-25T03:39:33.116Z,19.13
2022-08-25T03:40:33.498Z,19.14
2022-08-25T03:41:33.717Z,19.14
2022-08-25T03:42:33.980Z,19.13
2022-08-25T03:43:34.305Z,19.13
2022-08-25T03:44:34.517Z,19.13
2022-08-25T03:45:34.837Z,19.13
2022-08-25T03:46:35.045Z,19.10
2022-08-25T03:47:35.317Z,19.06
2022-08-25T03:48:35.586Z,19.02
2022-08-25T03:49:35.894Z,18.95
2022-08-25T03:50:36.173Z,18.87
2022-08-25T03:51:36.449Z,18.84
2022-08-25T03:52:41.694Z,18.87
2022-08-25T03:53:38.016Z,18.84
2022-08-25T03:54:37.400Z,18.84
2022-08-25T03:55:37.695Z,18.80
2022-08-25T03:56:37.973Z,18.76
2022-08-25T03:57:38.270Z,18.74
2022-08-25T03:58:38.561Z,18.73
2022-08-25T03:59:38.850Z,18.73
2022-08-25T04:00:39.123Z,18.67
2022-08-25T04:01:39.428Z,18.67
2022-08-25T04:02:39.764Z,18.59
2022-08-25T04:03:39.927Z,18.64
2022-08-25T04:04:40.217Z,18.65
2022-08-25T04:05:40.505Z,18.65
2022-08-25T04:06:40.802Z,18.67
2022-08-25T04:07:41.136Z,18.62
2022-08-25T04:08:41.426Z,18.58
2022-08-25T04:09:41.704Z,18.54
2022-08-25T04:10:41.980Z,18.52
2022-08-25T04:11:42.679Z,18.52
2022-08-25T04:12:42.544Z,18.52
2022-08-25T04:13:42.855Z,18.55
2022-08-25T04:14:43.146Z,18.57
2022-08-25T04:15:43.425Z,18.54
2022-08-25T04:16:43.781Z,18.54
2022-08-25T04:17:44.027Z,18.55
2022-08-25T04:18:44.300Z,18.50
2022-08-25T04:19:44.593Z,18.49
2022-08-25T04:20:46.870Z,18.47
2022-08-25T04:21:45.160Z,18.43
2022-08-25T04:22:45.484Z,18.44
2022-08-25T04:23:45.778Z,18.52
2022-08-25T04:24:46.046Z,18.55
2022-08-25T04:25:46.390Z,18.57
2022-08-25T04:26:46.629Z,18.57
2022-08-25T04:27:46.809Z,18.54
2022-08-25T04:28:47.114Z,18.55
2022-08-25T04:29:47.423Z,18.54
2022-08-25T04:30:51.867Z,18.55
2022-08-25T04:31:48.800Z,18.59
2022-08-25T04:32:48.315Z,18.58
2022-08-25T04:33:48.627Z,18.54
2022-08-25T04:34:48.923Z,18.52
2022-08-25T04:35:49.234Z,18.47
2022-08-25T04:36:51.209Z,18.43
2022-08-25T04:37:49.847Z,18.44
2022-08-25T04:38:50.134Z,18.43
2022-08-25T04:39:50.538Z,18.40
2022-08-25T04:40:50.758Z,18.34
2022-08-25T04:41:51.051Z,18.29
2022-08-25T04:42:51.334Z,18.22
2022-08-25T04:43:51.613Z,18.17
2022-08-25T04:44:51.956Z,18.17
2022-08-25T04:45:52.364Z,18.19
2022-08-25T04:46:52.543Z,18.15
2022-08-25T04:47:54.981Z,18.12
2022-08-25T04:48:53.115Z,18.10
2022-08-25T04:49:53.444Z,18.09
2022-08-25T04:50:53.632Z,18.09
2022-08-25T04:51:53.940Z,18.13
2022-08-25T04:52:54.259Z,18.12
2022-08-25T04:53:54.555Z,18.13
2022-08-25T04:54:54.882Z,18.19
2022-08-25T04:55:55.206Z,18.22
2022-08-25T04:56:58.074Z,18.29
2022-08-25T04:57:55.839Z,18.36
2022-08-25T04:58:56.136Z,18.44
2022-08-25T04:59:56.410Z,18.50
2022-08-25T05:00:56.808Z,18.54
2022-08-25T05:01:57.047Z,18.54
2022-08-25T05:02:57.231Z,18.54
2022-08-25T05:03:57.542Z,18.55
2022-08-25T05:04:57.847Z,18.59
2022-08-25T05:05:58.166Z,18.61
2022-08-25T05:06:58.459Z,18.64
2022-08-25T05:07:58.746Z,18.65
2022-08-25T05:08:59.074Z,18.65
2022-08-25T05:09:59.380Z,18.67
2022-08-25T05:10:59.664Z,18.70
2022-08-25T05:11:59.927Z,18.68
2022-08-25T05:13:00.200Z,18.64
2022-08-25T05:14:00.499Z,18.64
2022-08-25T05:15:00.828Z,18.59
2022-08-25T05:16:01.207Z,18.62
2022-08-25T05:17:01.417Z,18.58
2022-08-25T05:18:01.688Z,18.58
2022-08-25T05:19:01.957Z,18.62
2022-08-25T05:20:02.260Z,18.61
2022-08-25T05:21:02.555Z,18.59
2022-08-25T05:22:02.877Z,18.57
2022-08-25T05:23:03.170Z,18.61
2022-08-25T05:24:03.465Z,18.67
2022-08-25T05:25:03.737Z,18.70
2022-08-25T05:26:04.011Z,18.73
2022-08-25T05:27:04.330Z,18.72
2022-08-25T05:28:04.860Z,18.70
2022-08-25T05:29:04.911Z,18.70
2022-08-25T05:30:05.211Z,18.70
2022-08-25T05:31:05.534Z,18.68
2022-08-25T05:32:05.915Z,18.68
2022-08-25T05:33:06.082Z,18.73
2022-08-25T05:34:06.397Z,18.74
2022-08-25T05:35:06.701Z,18.77
2022-08-25T05:36:06.971Z,18.79
2022-08-25T05:37:11.564Z,18.82
2022-08-25T05:38:07.610Z,18.86
2022-08-25T05:39:08.916Z,18.90
2022-08-25T05:40:08.172Z,18.90
2022-08-25T05:41:08.368Z,18.90
2022-08-25T05:42:08.652Z,18.90
2022-08-25T05:43:08.942Z,18.90
2022-08-25T05:44:09.269Z,18.92
2022-08-25T05:45:09.568Z,18.92
2022-08-25T05:46:09.913Z,18.92
2022-08-25T05:47:10.130Z,18.95
2022-08-25T05:48:10.398Z,18.98
2022-08-25T05:49:10.681Z,19.05
2022-08-25T05:50:11.001Z,19.08
2022-08-25T05:51:11.303Z,19.17
2022-08-25T05:52:14.301Z,19.20
2022-08-25T05:53:12.910Z,19.28
2022-08-25T05:54:12.265Z,19.33
2022-08-25T05:55:12.554Z,19.38
2022-08-25T05:56:12.826Z,19.43
2022-08-25T05:57:13.151Z,19.47
2022-08-25T05:58:14.202Z,19.53
2022-08-25T05:59:13.666Z,19.58
2022-08-25T06:00:13.966Z,19.63
2022-08-25T06:01:14.367Z,19.68
2022-08-25T06:02:14.602Z,19.73
2022-08-25T06:03:14.914Z,19.78
2022-08-25T06:04:15.170Z,19.83
2022-08-25T06:05:15.458Z,19.87
2022-08-25T06:06:15.768Z,19.91
2022-08-25T06:07:16.015Z,19.97
2022-08-25T06:08:16.309Z,20.03
2022-08-25T06:09:16.639Z,20.08
2022-08-25T06:10:16.980Z,20.13
2022-08-25T06:11:17.159Z,20.18
2022-08-25T06:12:17.456Z,20.24
2022-08-25T06:13:17.746Z,20.28
2022-08-25T06:14:18.059Z,20.33
2022-08-25T06:15:18.386Z,20.39
2022-08-25T06:16:18.751Z,20.42
2022-08-25T06:17:18.973Z,20.43
2022-08-25T06:18:19.274Z,20.38
2022-08-25T06:19:19.554Z,20.39
2022-08-25T06:20:19.872Z,20.46
2022-08-25T06:21:20.085Z,20.49
2022-08-25T06:22:20.383Z,20.58
2022-08-25T06:23:20.647Z,20.62
2022-08-25T06:24:20.929Z,20.69
2022-08-25T06:25:21.253Z,20.74
2022-08-25T06:26:21.749Z,20.79
2022-08-25T06:27:21.807Z,20.83
2022-08-25T06:28:22.084Z,20.80
2022-08-25T06:29:22.362Z,20.83
2022-08-25T06:30:28.611Z,20.83
2022-08-25T06:31:24.065Z,20.84
2022-08-25T06:32:23.304Z,20.84
2022-08-25T06:33:23.604Z,20.84
2022-08-25T06:34:24.424Z,20.84
2022-08-25T06:35:24.233Z,20.83
2022-08-25T06:36:24.517Z,20.79
2022-08-25T06:37:25.407Z,20.77
2022-08-25T06:38:25.065Z,20.79
2022-08-25T06:39:25.398Z,20.80
2022-08-25T06:40:25.888Z,20.81
2022-08-25T06:41:27.534Z,20.84
2022-08-25T06:42:27.323Z,20.87
2022-08-25T06:43:26.546Z,20.89
2022-08-25T06:44:26.845Z,20.89
2022-08-25T06:45:27.144Z,20.90
2022-08-25T06:46:34.678Z,20.90
2022-08-25T06:47:28.714Z,20.90
2022-08-25T06:48:28.049Z,20.90
2022-08-25T06:49:31.817Z,20.89
2022-08-25T06:50:29.625Z,20.89
2022-08-25T06:51:28.965Z,20.90
2022-08-25T06:52:29.597Z,20.89
2022-08-25T06:53:29.507Z,20.93
2022-08-25T06:54:29.816Z,20.95
2022-08-25T06:55:30.121Z,20.93
2022-08-25T06:56:30.428Z,20.96
2022-08-25T06:57:30.742Z,20.96
2022-08-25T06:58:31.055Z,20.98
2022-08-25T06:59:32.221Z,20.96
2022-08-25T07:00:31.661Z,20.95
2022-08-25T07:01:32.177Z,20.95
2022-08-25T07:02:32.236Z,20.91
2022-08-25T07:03:32.419Z,20.90
2022-08-25T07:04:32.756Z,20.89
2022-08-25T07:05:43.107Z,20.87
2022-08-25T07:06:34.336Z,20.86
2022-08-25T07:07:43.764Z,20.89
2022-08-25T07:08:34.904Z,20.86
2022-08-25T07:09:38.568Z,20.89
2022-08-25T07:10:35.434Z,20.89
2022-08-25T07:11:34.679Z,20.90
2022-08-25T07:12:34.963Z,20.93
2022-08-25T07:13:35.256Z,20.95
2022-08-25T07:14:35.555Z,20.95
2022-08-25T07:15:35.894Z,20.96
2022-08-25T07:16:36.225Z,20.96
2022-08-25T07:17:36.491Z,20.96
2022-08-25T07:18:36.796Z,20.93
2022-08-25T07:19:37.098Z,20.93
2022-08-25T07:20:37.453Z,20.93
2022-08-25T07:21:37.670Z,20.96
2022-08-25T07:22:38.948Z,20.98
2022-08-25T07:23:38.272Z,20.98
2022-08-25T07:24:38.450Z,21.01
2022-08-25T07:25:38.745Z,21.05
2022-08-25T07:26:39.330Z,21.09
2022-08-25T07:27:39.385Z,21.11
2022-08-25T07:28:39.645Z,21.13
2022-08-25T07:29:42.581Z,21.14
2022-08-25T07:30:40.231Z,21.13
2022-08-25T07:31:40.611Z,21.13
2022-08-25T07:32:41.924Z,21.13
2022-08-25T07:33:41.106Z,21.13
2022-08-25T07:34:41.392Z,21.13
2022-08-25T07:35:43.745Z,21.13
2022-08-25T07:36:42.029Z,21.14
2022-08-25T07:37:49.333Z,21.16
2022-08-25T07:38:43.637Z,21.19
2022-08-25T07:39:42.989Z,21.21
2022-08-25T07:40:43.376Z,21.21
2022-08-25T07:41:43.531Z,21.19
2022-08-25T07:42:43.876Z,21.21
2022-08-25T07:43:44.052Z,21.21
2022-08-25T07:44:44.322Z,21.24
2022-08-25T07:45:49.249Z,21.24
2022-08-25T07:46:45.946Z,21.26
2022-08-25T07:47:45.232Z,21.24
2022-08-25T07:48:45.503Z,21.21
2022-08-25T07:49:46.826Z,21.14
2022-08-25T07:50:46.030Z,21.13
2022-08-25T07:52:05.631Z,21.09
2022-08-25T07:52:52.160Z,21.09
2022-08-25T07:53:47.986Z,21.11
2022-08-25T07:54:47.276Z,21.13
2022-08-25T07:55:47.464Z,21.14
2022-08-25T07:56:47.763Z,21.14
2022-08-25T07:57:49.913Z,21.17
2022-08-25T07:58:49.332Z,21.23
2022-08-25T07:59:48.596Z,21.26
2022-08-25T08:00:48.826Z,21.30
2022-08-25T08:01:49.168Z,21.32
2022-08-25T08:02:49.526Z,21.32
2022-08-25T08:03:50.395Z,21.26
2022-08-25T08:04:50.176Z,21.24
2022-08-25T08:05:50.333Z,21.23
2022-08-25T08:06:50.631Z,21.23
2022-08-25T08:07:50.965Z,21.26
2022-08-25T08:08:54.642Z,21.29
2022-08-25T08:10:04.716Z,21.32
2022-08-25T08:11:04.307Z,21.35
2022-08-25T08:11:54.456Z,21.35
2022-08-25T08:12:52.483Z,21.38
2022-08-25T08:13:52.772Z,21.41
2022-08-25T08:14:53.090Z,21.44
2022-08-25T08:15:53.457Z,21.50
2022-08-25T08:16:53.692Z,21.51
2022-08-25T08:17:53.956Z,21.54
2022-08-25T08:18:54.255Z,21.56
2022-08-25T08:19:54.559Z,21.59
2022-08-25T08:20:54.881Z,21.61
2022-08-25T08:21:55.175Z,21.64
2022-08-25T08:22:55.498Z,21.67
2022-08-25T08:23:58.845Z,21.71
2022-08-25T08:24:56.529Z,21.72
2022-08-25T08:25:56.306Z,21.76
2022-08-25T08:26:58.980Z,21.79
2022-08-25T08:27:56.839Z,21.81
2022-08-25T08:28:57.192Z,21.82
2022-08-25T08:29:57.472Z,21.83
2022-08-25T08:30:57.877Z,21.85
2022-08-25T08:31:58.070Z,21.90
2022-08-25T08:33:13.745Z,21.92
2022-08-25T08:33:59.595Z,21.95
2022-08-25T08:34:58.885Z,21.99
2022-08-25T08:35:59.279Z,22.01
2022-08-25T08:36:59.294Z,22.06
2022-08-25T08:37:59.543Z,22.10
2022-08-25T08:38:59.827Z,22.13
2022-08-25T08:40:00.303Z,22.14
2022-08-25T08:41:00.454Z,22.14
2022-08-25T08:42:11.416Z,22.16
2022-08-25T08:43:02.058Z,22.16
2022-08-25T08:44:01.418Z,22.14
2022-08-25T08:45:02.665Z,22.16
2022-08-25T08:46:01.936Z,22.16
2022-08-25T08:47:02.206Z,22.16
2022-08-25T08:48:02.503Z,22.14
2022-08-25T08:49:02.812Z,22.14
2022-08-25T08:50:03.947Z,22.12
2022-08-25T08:51:03.444Z,22.06
2022-08-25T08:52:04.721Z,21.85
2022-08-25T08:53:04.074Z,21.72
2022-08-25T08:54:04.355Z,21.67
2022-08-25T08:55:05.507Z,21.53
2022-08-25T08:56:04.838Z,21.44
2022-08-25T08:57:05.166Z,21.44
2022-08-25T08:58:05.577Z,21.46
2022-08-25T08:59:06.424Z,21.53
2022-08-25T09:00:06.051Z,21.59
2022-08-25T09:01:06.372Z,21.64
2022-08-25T09:02:06.768Z,21.61
2022-08-25T09:03:08.041Z,21.59
2022-08-25T09:04:07.326Z,21.51
2022-08-25T09:05:07.615Z,21.50
2022-08-25T09:06:07.918Z,21.53
2022-08-25T09:07:08.237Z,21.59
2022-08-25T09:08:08.784Z,21.64
2022-08-25T09:09:08.789Z,21.63
2022-08-25T09:10:09.112Z,21.59
2022-08-25T09:11:10.213Z,21.66
2022-08-25T09:12:09.659Z,21.79
2022-08-25T09:13:12.241Z,21.91
2022-08-25T09:14:11.400Z,22.01
2022-08-25T09:15:12.941Z,22.12
2022-08-25T09:16:10.857Z,22.13
2022-08-25T09:17:12.079Z,22.13
2022-08-25T09:18:12.055Z,22.13
2022-08-25T09:19:11.638Z,22.17
2022-08-25T09:20:18.803Z,22.27
2022-08-25T09:21:13.178Z,22.14
2022-08-25T09:22:33.694Z,22.12
2022-08-25T09:23:13.709Z,22.07
2022-08-25T09:24:12.940Z,22.04
2022-08-25T09:25:16.363Z,22.04
2022-08-25T09:26:14.529Z,22.06
2022-08-25T09:27:13.750Z,22.09
2022-08-25T09:28:14.088Z,22.14
2022-08-25T09:29:17.026Z,22.23
2022-08-25T09:30:14.751Z,22.27
2022-08-25T09:31:14.933Z,22.25
2022-08-25T09:32:15.150Z,22.32
2022-08-25T09:33:16.473Z,22.39
2022-08-25T09:34:15.738Z,22.31
2022-08-25T09:35:16.067Z,22.29
2022-08-25T09:36:16.360Z,22.23
2022-08-25T09:37:16.608Z,22.23
2022-08-25T09:38:16.850Z,22.10
2022-08-25T09:39:17.140Z,21.99
2022-08-25T09:40:17.506Z,22.07
2022-08-25T09:41:17.774Z,22.17
2022-08-25T09:42:21.985Z,22.23
2022-08-25T09:43:19.332Z,22.23
2022-08-25T09:44:18.677Z,22.32
2022-08-25T09:45:18.932Z,22.41
2022-08-25T09:46:20.849Z,22.52
2022-08-25T09:47:19.518Z,22.64
2022-08-25T09:48:19.786Z,22.74
2022-08-25T09:49:20.091Z,22.84
2022-08-25T09:50:20.358Z,22.84
2022-08-25T09:51:20.687Z,22.84
2022-08-25T09:52:20.975Z,22.80
2022-08-25T09:53:21.653Z,22.82
2022-08-25T09:54:21.573Z,22.93
2022-08-25T09:55:21.901Z,23.02
2022-08-25T09:56:22.190Z,23.12
2022-08-25T09:57:22.504Z,23.04
2022-08-25T09:58:22.734Z,23.09
2022-08-25T09:59:34.337Z,23.01
2022-08-25T10:00:24.337Z,23.14
2022-08-25T10:01:23.645Z,23.29
2022-08-25T10:02:23.858Z,23.34
2022-08-25T10:03:24.925Z,23.42
2022-08-25T10:04:24.452Z,23.52
2022-08-25T10:05:24.773Z,23.58
2022-08-25T10:06:25.006Z,23.65
2022-08-25T10:07:25.283Z,23.79
2022-08-25T10:08:25.632Z,23.71
2022-08-25T10:09:25.933Z,23.52
2022-08-25T10:10:26.206Z,23.47
2022-08-25T10:11:26.517Z,23.58
2022-08-25T10:12:27.855Z,23.71
2022-08-25T10:13:27.126Z,23.57
2022-08-25T10:14:27.382Z,23.40
2022-08-25T10:15:30.052Z,23.38
2022-08-25T10:16:33.649Z,23.49
2022-08-25T10:17:29.355Z,23.62
2022-08-25T10:18:28.607Z,23.68
2022-08-25T10:19:28.814Z,23.61
2022-08-25T10:20:35.198Z,23.47
2022-08-25T10:21:30.370Z,23.40
2022-08-25T10:22:29.599Z,23.19
2022-08-25T10:23:30.771Z,23.27
2022-08-25T10:24:30.187Z,23.34
2022-08-25T10:25:30.515Z,23.47
2022-08-25T10:26:34.657Z,23.61
2022-08-25T10:27:31.037Z,23.79
2022-08-25T10:28:31.325Z,23.95
2022-08-25T10:29:32.651Z,24.12
2022-08-25T10:30:31.852Z,24.14
2022-08-25T10:31:33.091Z,23.97
2022-08-25T10:32:32.423Z,23.97
2022-08-25T10:33:32.728Z,23.87
2022-08-25T10:34:33.016Z,23.79
2022-08-25T10:35:33.309Z,23.95
2022-08-25T10:36:33.583Z,24.08
2022-08-25T10:37:33.881Z,24.04
2022-08-25T10:38:36.114Z,24.04
2022-08-25T10:39:36.787Z,24.04
2022-08-25T10:40:35.797Z,24.10
2022-08-25T10:41:35.005Z,24.20
2022-08-25T10:42:35.308Z,24.27
2022-08-25T10:43:35.622Z,24.29
2022-08-25T10:44:35.916Z,24.10
2022-08-25T10:45:36.229Z,23.94
2022-08-25T10:46:36.597Z,23.87
2022-08-25T10:47:36.735Z,23.76
2022-08-25T10:48:37.050Z,23.71
2022-08-25T10:49:37.338Z,23.67
2022-08-25T10:50:37.637Z,23.55
2022-08-25T10:51:37.937Z,23.52
2022-08-25T10:52:38.228Z,23.53
2022-08-25T10:53:38.542Z,23.68
2022-08-25T10:54:38.856Z,23.82
2022-08-25T10:55:40.305Z,23.83
2022-08-25T10:56:40.696Z,23.97
2022-08-25T10:57:39.746Z,24.13
2022-08-25T10:58:39.925Z,24.34
2022-08-25T10:59:40.227Z,24.61
2022-08-25T11:00:40.506Z,24.87
2022-08-25T11:01:43.942Z,24.82
2022-08-25T11:02:41.396Z,24.79
2022-08-25T11:03:41.427Z,24.69
2022-08-25T11:04:42.193Z,24.68
2022-08-25T11:05:42.020Z,24.80
2022-08-25T11:06:42.216Z,24.90
2022-08-25T11:07:42.575Z,25.12
2022-08-25T11:08:42.839Z,25.22
2022-08-25T11:09:43.134Z,25.35
2022-08-25T11:10:44.182Z,25.49
2022-08-25T11:11:43.649Z,25.42
2022-08-25T11:12:43.977Z,25.39
2022-08-25T11:13:44.266Z,25.43
2022-08-25T11:14:44.560Z,25.35
2022-08-25T11:16:06.270Z,25.31
2022-08-25T11:16:48.370Z,25.38
2022-08-25T11:17:45.480Z,25.54
2022-08-25T11:18:45.708Z,25.77
2022-08-25T11:19:45.978Z,25.98
2022-08-25T11:20:46.291Z,25.98
2022-08-25T11:21:46.594Z,26.11
2022-08-25T11:22:46.888Z,26.18
2022-08-25T11:23:47.152Z,26.20
2022-08-25T11:24:47.491Z,26.17
2022-08-25T11:25:47.779Z,26.25
2022-08-25T11:26:48.087Z,26.37
2022-08-25T11:27:48.375Z,26.52
2022-08-25T11:28:48.710Z,26.57
2022-08-25T11:29:48.998Z,26.65
2022-08-25T11:30:49.334Z,26.72
2022-08-25T11:31:52.987Z,26.77
2022-08-25T11:32:52.049Z,26.64
2022-08-25T11:33:50.126Z,26.62
2022-08-25T11:34:50.315Z,26.49
2022-08-25T11:35:50.613Z,26.50
2022-08-25T11:36:50.939Z,26.49
2022-08-25T11:37:51.260Z,26.44
2022-08-25T11:38:51.576Z,26.44
2022-08-25T11:39:51.932Z,26.55
2022-08-25T11:40:52.142Z,26.49
2022-08-25T11:41:54.219Z,26.46
2022-08-25T11:42:52.676Z,26.50
2022-08-25T11:43:52.971Z,26.57
2022-08-25T11:44:55.118Z,26.61
2022-08-25T11:45:54.345Z,26.76
2022-08-25T11:46:53.871Z,26.81
2022-08-25T11:47:54.170Z,26.81
2022-08-25T11:48:54.459Z,26.79
2022-08-25T11:49:54.757Z,26.84
2022-08-25T11:50:55.000Z,26.96
2022-08-25T11:51:55.324Z,27.14
2022-08-25T11:52:56.680Z,27.21
2022-08-25T11:53:55.926Z,27.33
2022-08-25T11:54:56.236Z,27.32
2022-08-25T11:55:56.518Z,27.35
2022-08-25T11:56:56.842Z,27.39
2022-08-25T11:57:57.155Z,27.43
2022-08-25T11:58:57.444Z,27.36
2022-08-25T11:59:57.712Z,27.43
2022-08-25T12:00:58.005Z,27.48
2022-08-25T12:01:58.264Z,27.46
2022-08-25T12:03:01.632Z,27.46
2022-08-25T12:03:58.978Z,27.42
2022-08-25T12:04:59.411Z,27.39
2022-08-25T12:05:59.434Z,27.38
2022-08-25T12:06:59.732Z,27.38
2022-08-25T12:08:00.103Z,27.42
2022-08-25T12:09:00.513Z,27.57
2022-08-25T12:10:00.577Z,27.82
2022-08-25T12:11:00.845Z,28.19
2022-08-25T12:12:01.184Z,28.26
2022-08-25T12:13:01.489Z,28.22
2022-08-25T12:14:01.782Z,27.99
2022-08-25T12:15:02.058Z,27.91
2022-08-25T12:16:04.148Z,27.96
2022-08-25T12:17:02.756Z,27.92
2022-08-25T12:18:07.276Z,28.04
2022-08-25T12:19:04.223Z,27.96
2022-08-25T12:20:03.475Z,27.91
2022-08-25T12:21:03.781Z,27.91
2022-08-25T12:22:04.288Z,27.70
2022-08-25T12:23:04.348Z,27.57
2022-08-25T12:24:04.641Z,27.58
2022-08-25T12:25:04.909Z,27.85
2022-08-25T12:26:05.198Z,28.13
2022-08-25T12:27:06.279Z,28.31
2022-08-25T12:28:09.482Z,28.53
2022-08-25T12:29:07.436Z,28.56
2022-08-25T12:30:06.397Z,28.53
2022-08-25T12:31:06.774Z,28.33
2022-08-25T12:32:07.026Z,28.36
2022-08-25T12:33:07.364Z,28.36
2022-08-25T12:34:07.662Z,28.36
2022-08-25T12:35:07.961Z,28.36
2022-08-25T12:36:08.277Z,28.29
2022-08-25T12:37:08.548Z,28.29
2022-08-25T12:38:08.846Z,28.29
2022-08-25T12:39:09.138Z,28.17
2022-08-25T12:40:09.451Z,28.14
2022-08-25T12:41:09.681Z,28.11
2022-08-25T12:42:09.980Z,28.25
2022-08-25T12:43:10.227Z,28.38
2022-08-25T12:44:10.527Z,28.56
2022-08-25T12:45:10.806Z,28.73
2022-08-25T12:46:11.248Z,28.81
2022-08-25T12:47:11.356Z,28.91
2022-08-25T12:48:11.640Z,28.93
2022-08-25T12:49:11.965Z,28.88
2022-08-25T12:50:12.288Z,28.85
2022-08-25T12:51:12.647Z,28.82
2022-08-25T12:52:12.905Z,28.75
2022-08-25T12:53:13.214Z,28.65
2022-08-25T12:54:16.008Z,28.75
2022-08-25T12:55:14.829Z,28.48
2022-08-25T12:56:14.089Z,28.51
2022-08-25T12:57:14.418Z,28.58
2022-08-25T12:58:14.721Z,28.40
2022-08-25T12:59:14.942Z,28.38
2022-08-25T13:00:15.261Z,28.43
2022-08-25T13:01:17.596Z,28.58
2022-08-25T13:02:16.962Z,28.75
2022-08-25T13:03:16.292Z,28.72
2022-08-25T13:04:16.503Z,28.69
2022-08-25T13:05:16.758Z,28.80
2022-08-25T13:06:17.069Z,29.00
2022-08-25T13:07:17.373Z,29.16
2022-08-25T13:08:17.615Z,29.38
2022-08-25T13:09:17.910Z,29.52
2022-08-25T13:10:18.152Z,29.62
2022-08-25T13:11:20.200Z,29.62
2022-08-25T13:12:18.710Z,29.66
2022-08-25T13:13:18.961Z,29.71
2022-08-25T13:14:19.275Z,29.75
2022-08-25T13:15:19.464Z,29.75
2022-08-25T13:16:19.860Z,29.82
2022-08-25T13:17:20.104Z,29.93
2022-08-25T13:18:20.385Z,29.92
2022-08-25T13:19:21.154Z,29.92
2022-08-25T13:20:20.922Z,29.87
2022-08-25T13:21:21.181Z,29.92
2022-08-25T13:22:21.491Z,29.96
2022-08-25T13:23:21.764Z,30.11
2022-08-25T13:24:22.055Z,30.31
2022-08-25T13:25:23.138Z,30.45
2022-08-25T13:26:22.605Z,30.47
2022-08-25T13:27:23.069Z,30.36
2022-08-25T13:28:23.147Z,30.38
2022-08-25T13:29:23.462Z,30.36
2022-08-25T13:30:23.755Z,30.23
2022-08-25T13:31:24.084Z,30.34
2022-08-25T13:32:24.408Z,30.50
2022-08-25T13:33:25.088Z,30.45
2022-08-25T13:34:34.232Z,30.31
2022-08-25T13:35:30.328Z,30.07
2022-08-25T13:36:26.585Z,29.94
2022-08-25T13:37:25.918Z,29.79
2022-08-25T13:38:26.223Z,29.75
2022-08-25T13:39:46.001Z,29.79
2022-08-25T13:40:27.895Z,29.97
2022-08-25T13:41:29.238Z,30.12
2022-08-25T13:42:29.029Z,30.24
2022-08-25T13:43:27.852Z,30.31
2022-08-25T13:44:28.068Z,30.40
2022-08-25T13:45:28.438Z,30.43
2022-08-25T13:46:28.735Z,30.31
2022-08-25T13:47:29.019Z,30.21
2022-08-25T13:48:29.205Z,30.26
2022-08-25T13:49:29.484Z,29.99
2022-08-25T13:50:29.798Z,29.74
2022-08-25T13:51:31.286Z,29.79
2022-08-25T13:52:30.284Z,29.78
2022-08-25T13:53:31.752Z,29.75
2022-08-25T13:54:30.855Z,29.79
2022-08-25T13:55:31.121Z,29.70
2022-08-25T13:56:38.541Z,29.68
2022-08-25T13:57:32.630Z,29.78
2022-08-25T13:58:44.364Z,29.79
2022-08-25T13:59:33.291Z,29.79
2022-08-25T14:00:32.570Z,29.92
2022-08-25T14:01:49.210Z,30.08
2022-08-25T14:02:34.188Z,30.12
2022-08-25T14:03:33.563Z,30.02
2022-08-25T14:04:33.655Z,30.11
2022-08-25T14:05:36.084Z,30.02
2022-08-25T14:06:34.318Z,29.99
2022-08-25T14:07:34.799Z,30.00
2022-08-25T14:08:34.874Z,30.05
2022-08-25T14:09:35.208Z,30.18
2022-08-25T14:10:35.518Z,30.19
2022-08-25T14:11:35.781Z,30.26
2022-08-25T14:12:36.074Z,30.12
2022-08-25T14:13:36.397Z,30.05
2022-08-25T14:14:36.646Z,29.86
2022-08-25T14:15:36.980Z,29.96
2022-08-25T14:16:37.434Z,29.93
2022-08-25T14:17:40.103Z,29.92
2022-08-25T14:18:37.794Z,30.00
2022-08-25T14:19:38.089Z,30.12
2022-08-25T14:20:38.412Z,30.31
2022-08-25T14:21:40.980Z,30.27
2022-08-25T14:22:38.989Z,30.19
2022-08-25T14:23:39.421Z,30.31
2022-08-25T14:24:40.959Z,30.50
2022-08-25T14:25:40.786Z,30.67
2022-08-25T14:26:40.220Z,30.75
2022-08-25T14:27:56.911Z,30.78
2022-08-25T14:28:41.828Z,30.87
2022-08-25T14:29:41.398Z,30.93
2022-08-25T14:30:43.506Z,30.90
2022-08-25T14:31:42.705Z,30.96
2022-08-25T14:32:41.898Z,31.06
2022-08-25T14:33:42.131Z,31.15
2022-08-25T14:34:42.468Z,31.23
2022-08-25T14:35:42.813Z,31.28
2022-08-25T14:36:43.021Z,31.33
2022-08-25T14:37:43.286Z,31.39
2022-08-25T14:38:44.143Z,31.17
2022-08-25T14:39:44.148Z,30.93
2022-08-25T14:40:44.217Z,30.75
2022-08-25T14:41:47.426Z,30.54
2022-08-25T14:42:45.706Z,30.46
2022-08-25T14:43:45.036Z,30.37
2022-08-25T14:44:45.316Z,30.26
2022-08-25T14:45:45.947Z,30.27
2022-08-25T14:46:45.924Z,30.07
2022-08-25T14:47:46.251Z,30.08
2022-08-25T14:48:46.514Z,30.30
2022-08-25T14:49:46.767Z,30.45
2022-08-25T14:50:47.000Z,30.59
2022-08-25T14:51:47.269Z,30.59
2022-08-25T14:52:47.594Z,30.59
2022-08-25T14:53:47.837Z,30.52
2022-08-25T14:54:48.149Z,30.52
2022-08-25T14:55:48.428Z,30.37
2022-08-25T14:56:48.721Z,30.52
2022-08-25T14:57:49.029Z,30.49
2022-08-25T14:58:54.009Z,30.52